sensor_id;sensor_type;location;lat;lon;timestamp;temperature;humidity
22917;DHT22;11624;53.250;7.456;2024-02-26T00:01:22;10.25;58.19
22917;DHT22;11624;53.250;7.456;2024-02-26T00:03:51;10.29;57.98
22917;DHT22;11624;53.250;7.456;2024-02-26T00:06:21;10.33;57.91
22917;DHT22;11624;53.250;7.456;2024-02-26T00:08:49;10.29;57.91
22917;DHT22;11624;53.250;7.456;2024-02-26T00:11:19;10.35;57.76
22917;DHT22;11624;53.250;7.456;2024-02-26T00:13:48;10.35;57.74
22917;DHT22;11624;53.250;7.456;2024-02-26T00:16:16;10.31;57.78
22917;DHT22;11624;53.250;7.456;2024-02-26T00:18:45;10.31;57.76
22917;DHT22;11624;53.250;7.456;2024-02-26T00:21:16;10.29;57.84
22917;DHT22;11624;53.250;7.456;2024-02-26T00:23:45;10.27;58.03
22917;DHT22;11624;53.250;7.456;2024-02-26T00:26:14;10.26;58.19
22917;DHT22;11624;53.250;7.456;2024-02-26T00:28:43;10.30;58.37
22917;DHT22;11624;53.250;7.456;2024-02-26T00:31:12;10.27;58.62
22917;DHT22;11624;53.250;7.456;2024-02-26T00:33:40;10.30;59.01
22917;DHT22;11624;53.250;7.456;2024-02-26T00:36:09;10.30;59.05
22917;DHT22;11624;53.250;7.456;2024-02-26T00:38:38;10.38;59.14
22917;DHT22;11624;53.250;7.456;2024-02-26T00:41:07;10.43;59.31
22917;DHT22;11624;53.250;7.456;2024-02-26T00:43:36;10.49;59.29
22917;DHT22;11624;53.250;7.456;2024-02-26T00:46:07;10.49;59.34
22917;DHT22;11624;53.250;7.456;2024-02-26T00:48:36;10.52;59.46
22917;DHT22;11624;53.250;7.456;2024-02-26T00:51:05;10.57;59.48
22917;DHT22;11624;53.250;7.456;2024-02-26T00:53:35;10.66;59.54
22917;DHT22;11624;53.250;7.456;2024-02-26T00:56:03;10.70;59.43
22917;DHT22;11624;53.250;7.456;2024-02-26T00:58:32;10.77;59.38
22917;DHT22;11624;53.250;7.456;2024-02-26T01:01:00;10.78;59.49
22917;DHT22;11624;53.250;7.456;2024-02-26T01:03:31;10.81;59.47
22917;DHT22;11624;53.250;7.456;2024-02-26T01:06:00;10.84;59.54
22917;DHT22;11624;53.250;7.456;2024-02-26T01:08:29;10.86;59.45
22917;DHT22;11624;53.250;7.456;2024-02-26T01:10:59;10.86;59.47
22917;DHT22;11624;53.250;7.456;2024-02-26T01:13:28;10.85;59.45
22917;DHT22;11624;53.250;7.456;2024-02-26T01:15:56;10.87;59.27
22917;DHT22;11624;53.250;7.456;2024-02-26T01:18:25;10.83;59.22
22917;DHT22;11624;53.250;7.456;2024-02-26T01:20:55;10.80;59.06
22917;DHT22;11624;53.250;7.456;2024-02-26T01:23:23;10.74;59.03
22917;DHT22;11624;53.250;7.456;2024-02-26T01:25:52;10.66;59.10
22917;DHT22;11624;53.250;7.456;2024-02-26T01:28:20;10.65;59.16
22917;DHT22;11624;53.250;7.456;2024-02-26T01:30:49;10.67;59.15
22917;DHT22;11624;53.250;7.456;2024-02-26T01:33:17;10.67;59.14
22917;DHT22;11624;53.250;7.456;2024-02-26T01:35:46;10.67;59.06
22917;DHT22;11624;53.250;7.456;2024-02-26T01:38:16;10.64;58.98
22917;DHT22;11624;53.250;7.456;2024-02-26T01:40:45;10.64;59.00
22917;DHT22;11624;53.250;7.456;2024-02-26T01:43:13;10.59;58.86
22917;DHT22;11624;53.250;7.456;2024-02-26T01:45:42;10.51;59.05
22917;DHT22;11624;53.250;7.456;2024-02-26T01:48:10;10.50;58.99
22917;DHT22;11624;53.250;7.456;2024-02-26T01:50:40;10.48;58.82
22917;DHT22;11624;53.250;7.456;2024-02-26T01:53:09;10.42;58.99
22917;DHT22;11624;53.250;7.456;2024-02-26T01:55:39;10.38;58.99
22917;DHT22;11624;53.250;7.456;2024-02-26T01:58:08;10.35;59.11
22917;DHT22;11624;53.250;7.456;2024-02-26T02:00:37;10.31;59.09
22917;DHT22;11624;53.250;7.456;2024-02-26T02:03:07;10.31;58.99
22917;DHT22;11624;53.250;7.456;2024-02-26T02:05:36;10.34;59.10
22917;DHT22;11624;53.250;7.456;2024-02-26T02:08:10;10.29;59.26
22917;DHT22;11624;53.250;7.456;2024-02-26T02:10:41;10.27;59.27
22917;DHT22;11624;53.250;7.456;2024-02-26T02:13:10;10.30;59.60
22917;DHT22;11624;53.250;7.456;2024-02-26T02:15:39;10.35;59.65
22917;DHT22;11624;53.250;7.456;2024-02-26T02:18:07;10.39;59.69
22917;DHT22;11624;53.250;7.456;2024-02-26T02:20:37;10.41;59.61
22917;DHT22;11624;53.250;7.456;2024-02-26T02:23:06;10.48;59.37
22917;DHT22;11624;53.250;7.456;2024-02-26T02:25:34;10.43;59.40
22917;DHT22;11624;53.250;7.456;2024-02-26T02:28:03;10.43;59.47
22917;DHT22;11624;53.250;7.456;2024-02-26T02:30:32;10.41;59.40
22917;DHT22;11624;53.250;7.456;2024-02-26T02:33:03;10.39;59.39
22917;DHT22;11624;53.250;7.456;2024-02-26T02:35:32;10.37;59.31
22917;DHT22;11624;53.250;7.456;2024-02-26T02:38:03;10.30;59.09
22917;DHT22;11624;53.250;7.456;2024-02-26T02:40:31;10.28;59.47
22917;DHT22;11624;53.250;7.456;2024-02-26T02:43:00;10.27;59.38
22917;DHT22;11624;53.250;7.456;2024-02-26T02:45:29;10.26;59.42
22917;DHT22;11624;53.250;7.456;2024-02-26T02:47:57;10.25;59.32
22917;DHT22;11624;53.250;7.456;2024-02-26T02:50:26;10.23;59.42
22917;DHT22;11624;53.250;7.456;2024-02-26T02:52:56;10.20;59.41
22917;DHT22;11624;53.250;7.456;2024-02-26T02:55:25;10.18;59.43
22917;DHT22;11624;53.250;7.456;2024-02-26T02:57:54;10.16;59.32
22917;DHT22;11624;53.250;7.456;2024-02-26T03:00:22;10.18;59.14
22917;DHT22;11624;53.250;7.456;2024-02-26T03:02:51;10.13;59.14
22917;DHT22;11624;53.250;7.456;2024-02-26T03:05:20;10.11;59.19
22917;DHT22;11624;53.250;7.456;2024-02-26T03:07:48;10.01;59.39
22917;DHT22;11624;53.250;7.456;2024-02-26T03:10:17;10.00;59.41
22917;DHT22;11624;53.250;7.456;2024-02-26T03:12:47;10.04;59.28
22917;DHT22;11624;53.250;7.456;2024-02-26T03:15:15;9.99;59.33
22917;DHT22;11624;53.250;7.456;2024-02-26T03:17:44;9.98;59.38
22917;DHT22;11624;53.250;7.456;2024-02-26T03:20:13;9.99;59.32
22917;DHT22;11624;53.250;7.456;2024-02-26T03:22:41;10.01;59.21
22917;DHT22;11624;53.250;7.456;2024-02-26T03:25:10;9.99;59.27
22917;DHT22;11624;53.250;7.456;2024-02-26T03:27:38;9.97;59.41
22917;DHT22;11624;53.250;7.456;2024-02-26T03:30:09;9.95;59.12
22917;DHT22;11624;53.250;7.456;2024-02-26T03:32:38;9.97;59.30
22917;DHT22;11624;53.250;7.456;2024-02-26T03:35:07;9.95;59.33
22917;DHT22;11624;53.250;7.456;2024-02-26T03:37:35;9.96;59.31
22917;DHT22;11624;53.250;7.456;2024-02-26T03:40:05;9.96;59.17
22917;DHT22;11624;53.250;7.456;2024-02-26T03:42:34;9.93;59.23
22917;DHT22;11624;53.250;7.456;2024-02-26T03:45:02;9.91;59.18
22917;DHT22;11624;53.250;7.456;2024-02-26T03:47:32;9.91;59.03
22917;DHT22;11624;53.250;7.456;2024-02-26T03:50:01;9.86;59.12
22917;DHT22;11624;53.250;7.456;2024-02-26T03:52:31;9.85;59.27
22917;DHT22;11624;53.250;7.456;2024-02-26T03:54:59;9.89;59.17
22917;DHT22;11624;53.250;7.456;2024-02-26T03:57:28;9.88;59.12
22917;DHT22;11624;53.250;7.456;2024-02-26T03:59:56;9.84;59.21
22917;DHT22;11624;53.250;7.456;2024-02-26T04:02:24;9.84;59.20
22917;DHT22;11624;53.250;7.456;2024-02-26T04:04:55;9.82;59.10
22917;DHT22;11624;53.250;7.456;2024-02-26T04:07:24;9.82;59.28
22917;DHT22;11624;53.250;7.456;2024-02-26T04:09:52;9.81;59.31
22917;DHT22;11624;53.250;7.456;2024-02-26T04:12:20;9.78;59.35
22917;DHT22;11624;53.250;7.456;2024-02-26T04:14:49;9.75;59.49
22917;DHT22;11624;53.250;7.456;2024-02-26T04:17:18;9.78;59.48
22917;DHT22;11624;53.250;7.456;2024-02-26T04:19:46;9.78;59.37
22917;DHT22;11624;53.250;7.456;2024-02-26T04:22:16;9.83;59.19
22917;DHT22;11624;53.250;7.456;2024-02-26T04:24:44;9.82;59.17
22917;DHT22;11624;53.250;7.456;2024-02-26T04:27:13;9.78;59.27
22917;DHT22;11624;53.250;7.456;2024-02-26T04:29:41;9.77;59.25
22917;DHT22;11624;53.250;7.456;2024-02-26T04:32:10;9.72;59.48
22917;DHT22;11624;53.250;7.456;2024-02-26T04:34:38;9.77;59.45
22917;DHT22;11624;53.250;7.456;2024-02-26T04:37:07;9.79;59.36
22917;DHT22;11624;53.250;7.456;2024-02-26T04:39:37;9.83;59.22
22917;DHT22;11624;53.250;7.456;2024-02-26T04:42:05;9.83;59.24
22917;DHT22;11624;53.250;7.456;2024-02-26T04:44:34;9.82;59.22
22917;DHT22;11624;53.250;7.456;2024-02-26T04:47:03;9.82;59.34
22917;DHT22;11624;53.250;7.456;2024-02-26T04:49:31;9.81;59.22
22917;DHT22;11624;53.250;7.456;2024-02-26T04:52:01;9.85;59.29
22917;DHT22;11624;53.250;7.456;2024-02-26T04:54:29;9.84;59.10
22917;DHT22;11624;53.250;7.456;2024-02-26T04:56:59;9.85;59.07
22917;DHT22;11624;53.250;7.456;2024-02-26T04:59:28;9.82;59.21
22917;DHT22;11624;53.250;7.456;2024-02-26T05:01:56;9.77;59.48
22917;DHT22;11624;53.250;7.456;2024-02-26T05:04:25;9.79;59.41
22917;DHT22;11624;53.250;7.456;2024-02-26T05:06:53;9.82;59.28
22917;DHT22;11624;53.250;7.456;2024-02-26T05:09:22;9.83;59.23
22917;DHT22;11624;53.250;7.456;2024-02-26T05:11:51;9.86;59.16
22917;DHT22;11624;53.250;7.456;2024-02-26T05:14:21;9.89;58.95
22917;DHT22;11624;53.250;7.456;2024-02-26T05:16:49;9.89;59.01
22917;DHT22;11624;53.250;7.456;2024-02-26T05:19:18;9.83;59.16
22917;DHT22;11624;53.250;7.456;2024-02-26T05:21:46;9.86;59.13
22917;DHT22;11624;53.250;7.456;2024-02-26T05:24:17;9.89;59.06
22917;DHT22;11624;53.250;7.456;2024-02-26T05:26:49;9.94;58.91
22917;DHT22;11624;53.250;7.456;2024-02-26T05:29:18;9.93;58.83
22917;DHT22;11624;53.250;7.456;2024-02-26T05:31:48;9.93;58.89
22917;DHT22;11624;53.250;7.456;2024-02-26T05:34:16;9.96;58.92
22917;DHT22;11624;53.250;7.456;2024-02-26T05:36:45;9.97;58.68
22917;DHT22;11624;53.250;7.456;2024-02-26T05:39:13;9.97;58.76
22917;DHT22;11624;53.250;7.456;2024-02-26T05:41:46;9.98;58.69
22917;DHT22;11624;53.250;7.456;2024-02-26T05:44:16;9.94;58.80
22917;DHT22;11624;53.250;7.456;2024-02-26T05:46:45;9.98;58.70
22917;DHT22;11624;53.250;7.456;2024-02-26T05:49:15;9.95;58.73
22917;DHT22;11624;53.250;7.456;2024-02-26T05:51:43;9.95;58.77
22917;DHT22;11624;53.250;7.456;2024-02-26T05:54:12;9.99;58.50
22917;DHT22;11624;53.250;7.456;2024-02-26T05:56:41;9.95;58.66
22917;DHT22;11624;53.250;7.456;2024-02-26T05:59:09;9.98;58.45
22917;DHT22;11624;53.250;7.456;2024-02-26T06:01:38;9.93;58.72
22917;DHT22;11624;53.250;7.456;2024-02-26T06:04:06;9.96;58.59
22917;DHT22;11624;53.250;7.456;2024-02-26T06:06:36;9.98;58.54
22917;DHT22;11624;53.250;7.456;2024-02-26T06:09:09;9.97;58.49
22917;DHT22;11624;53.250;7.456;2024-02-26T06:11:38;9.93;58.73
22917;DHT22;11624;53.250;7.456;2024-02-26T06:14:07;9.97;58.53
22917;DHT22;11624;53.250;7.456;2024-02-26T06:16:35;9.99;58.56
22917;DHT22;11624;53.250;7.456;2024-02-26T06:19:04;10.03;58.37
22917;DHT22;11624;53.250;7.456;2024-02-26T06:21:33;9.99;58.51
22917;DHT22;11624;53.250;7.456;2024-02-26T06:24:04;9.94;58.61
22917;DHT22;11624;53.250;7.456;2024-02-26T06:26:33;9.96;58.59
22917;DHT22;11624;53.250;7.456;2024-02-26T06:29:01;9.97;58.66
22917;DHT22;11624;53.250;7.456;2024-02-26T06:31:31;10.03;58.41
22917;DHT22;11624;53.250;7.456;2024-02-26T06:33:59;9.99;58.52
22917;DHT22;11624;53.250;7.456;2024-02-26T06:36:28;9.97;58.56
22917;DHT22;11624;53.250;7.456;2024-02-26T06:38:58;10.01;58.44
22917;DHT22;11624;53.250;7.456;2024-02-26T06:41:28;10.04;58.30
22917;DHT22;11624;53.250;7.456;2024-02-26T06:43:57;10.05;58.41
22917;DHT22;11624;53.250;7.456;2024-02-26T06:46:25;10.06;58.45
22917;DHT22;11624;53.250;7.456;2024-02-26T06:48:55;10.09;58.25
22917;DHT22;11624;53.250;7.456;2024-02-26T06:51:24;10.09;58.15
22917;DHT22;11624;53.250;7.456;2024-02-26T06:53:53;10.09;58.13
22917;DHT22;11624;53.250;7.456;2024-02-26T06:56:21;10.13;58.22
22917;DHT22;11624;53.250;7.456;2024-02-26T06:58:51;10.19;57.91
22917;DHT22;11624;53.250;7.456;2024-02-26T07:01:20;10.19;58.09
22917;DHT22;11624;53.250;7.456;2024-02-26T07:03:48;10.24;57.83
22917;DHT22;11624;53.250;7.456;2024-02-26T07:06:17;10.23;58.05
22917;DHT22;11624;53.250;7.456;2024-02-26T07:08:45;10.27;57.80
22917;DHT22;11624;53.250;7.456;2024-02-26T07:11:14;10.29;57.81
22917;DHT22;11624;53.250;7.456;2024-02-26T07:13:42;10.36;57.76
22917;DHT22;11624;53.250;7.456;2024-02-26T07:16:12;10.35;57.58
22917;DHT22;11624;53.250;7.456;2024-02-26T07:18:41;10.40;57.63
22917;DHT22;11624;53.250;7.456;2024-02-26T07:21:11;10.40;57.54
22917;DHT22;11624;53.250;7.456;2024-02-26T07:23:40;10.44;57.52
22917;DHT22;11624;53.250;7.456;2024-02-26T07:26:09;10.50;57.43
22917;DHT22;11624;53.250;7.456;2024-02-26T07:28:38;10.53;57.29
22917;DHT22;11624;53.250;7.456;2024-02-26T07:31:07;10.56;57.19
22917;DHT22;11624;53.250;7.456;2024-02-26T07:33:37;10.54;57.14
22917;DHT22;11624;53.250;7.456;2024-02-26T07:36:06;10.59;57.13
22917;DHT22;11624;53.250;7.456;2024-02-26T07:38:34;10.57;57.01
22917;DHT22;11624;53.250;7.456;2024-02-26T07:41:10;10.58;57.08
22917;DHT22;11624;53.250;7.456;2024-02-26T07:43:39;10.56;57.13
22917;DHT22;11624;53.250;7.456;2024-02-26T07:46:08;10.59;57.15
22917;DHT22;11624;53.250;7.456;2024-02-26T07:48:40;10.66;57.02
22917;DHT22;11624;53.250;7.456;2024-02-26T07:51:12;10.67;56.79
22917;DHT22;11624;53.250;7.456;2024-02-26T07:53:41;10.73;56.70
22917;DHT22;11624;53.250;7.456;2024-02-26T07:56:10;10.79;56.49
22917;DHT22;11624;53.250;7.456;2024-02-26T07:58:38;10.79;56.62
22917;DHT22;11624;53.250;7.456;2024-02-26T08:01:06;10.79;56.82
22917;DHT22;11624;53.250;7.456;2024-02-26T08:03:37;10.84;56.59
22917;DHT22;11624;53.250;7.456;2024-02-26T08:06:08;10.88;56.19
22917;DHT22;11624;53.250;7.456;2024-02-26T08:08:36;10.90;56.22
22917;DHT22;11624;53.250;7.456;2024-02-26T08:11:05;10.92;56.16
22917;DHT22;11624;53.250;7.456;2024-02-26T08:13:34;10.96;56.03
22917;DHT22;11624;53.250;7.456;2024-02-26T08:16:03;10.97;56.00
22917;DHT22;11624;53.250;7.456;2024-02-26T08:18:32;10.96;56.11
22917;DHT22;11624;53.250;7.456;2024-02-26T08:21:01;11.01;55.93
22917;DHT22;11624;53.250;7.456;2024-02-26T08:23:31;10.99;55.91
22917;DHT22;11624;53.250;7.456;2024-02-26T08:25:59;11.05;56.05
22917;DHT22;11624;53.250;7.456;2024-02-26T08:28:28;11.12;55.38
22917;DHT22;11624;53.250;7.456;2024-02-26T08:30:56;11.11;55.32
22917;DHT22;11624;53.250;7.456;2024-02-26T08:33:25;11.07;55.56
22917;DHT22;11624;53.250;7.456;2024-02-26T08:35:54;11.10;55.55
22917;DHT22;11624;53.250;7.456;2024-02-26T08:38:22;11.13;55.77
22917;DHT22;11624;53.250;7.456;2024-02-26T08:40:52;11.22;55.18
22917;DHT22;11624;53.250;7.456;2024-02-26T08:43:21;11.27;55.05
22917;DHT22;11624;53.250;7.456;2024-02-26T08:45:49;11.31;54.59
22917;DHT22;11624;53.250;7.456;2024-02-26T08:48:17;11.32;54.87
22917;DHT22;11624;53.250;7.456;2024-02-26T08:50:46;11.32;54.70
22917;DHT22;11624;53.250;7.456;2024-02-26T08:53:14;11.33;54.50
22917;DHT22;11624;53.250;7.456;2024-02-26T08:55:51;11.31;54.54
22917;DHT22;11624;53.250;7.456;2024-02-26T08:58:20;11.37;54.44
22917;DHT22;11624;53.250;7.456;2024-02-26T09:00:48;11.36;54.65
22917;DHT22;11624;53.250;7.456;2024-02-26T09:03:17;11.37;54.45
22917;DHT22;11624;53.250;7.456;2024-02-26T09:05:46;11.43;54.36
22917;DHT22;11624;53.250;7.456;2024-02-26T09:08:14;11.46;54.52
22917;DHT22;11624;53.250;7.456;2024-02-26T09:10:43;11.55;54.12
22917;DHT22;11624;53.250;7.456;2024-02-26T09:13:12;11.60;54.11
22917;DHT22;11624;53.250;7.456;2024-02-26T09:15:41;11.68;53.49
22917;DHT22;11624;53.250;7.456;2024-02-26T09:18:09;11.62;53.93
22917;DHT22;11624;53.250;7.456;2024-02-26T09:20:38;11.68;53.65
22917;DHT22;11624;53.250;7.456;2024-02-26T09:23:07;11.68;53.71
22917;DHT22;11624;53.250;7.456;2024-02-26T09:25:35;11.76;53.43
22917;DHT22;11624;53.250;7.456;2024-02-26T09:28:04;11.77;53.70
22917;DHT22;11624;53.250;7.456;2024-02-26T09:30:34;11.81;53.31
22917;DHT22;11624;53.250;7.456;2024-02-26T09:33:03;11.79;53.22
22917;DHT22;11624;53.250;7.456;2024-02-26T09:35:31;11.79;53.50
22917;DHT22;11624;53.250;7.456;2024-02-26T09:38:00;11.87;53.39
22917;DHT22;11624;53.250;7.456;2024-02-26T09:40:30;11.96;52.86
22917;DHT22;11624;53.250;7.456;2024-02-26T09:43:00;11.94;52.59
22917;DHT22;11624;53.250;7.456;2024-02-26T09:45:28;11.90;52.98
22917;DHT22;11624;53.250;7.456;2024-02-26T09:48:02;11.94;52.22
22917;DHT22;11624;53.250;7.456;2024-02-26T09:50:32;11.98;52.56
22917;DHT22;11624;53.250;7.456;2024-02-26T09:53:02;12.04;52.60
22917;DHT22;11624;53.250;7.456;2024-02-26T09:55:30;12.52;51.50
22917;DHT22;11624;53.250;7.456;2024-02-26T09:58:00;12.74;51.15
22917;DHT22;11624;53.250;7.456;2024-02-26T10:00:30;12.91;50.77
22917;DHT22;11624;53.250;7.456;2024-02-26T10:03:04;13.00;49.92
22917;DHT22;11624;53.250;7.456;2024-02-26T10:05:34;12.53;51.63
22917;DHT22;11624;53.250;7.456;2024-02-26T10:08:04;12.76;51.44
22917;DHT22;11624;53.250;7.456;2024-02-26T10:10:33;12.89;51.06
22917;DHT22;11624;53.250;7.456;2024-02-26T10:13:01;12.93;50.75
22917;DHT22;11624;53.250;7.456;2024-02-26T10:15:37;12.77;51.35
22917;DHT22;11624;53.250;7.456;2024-02-26T10:18:07;12.80;50.89
22917;DHT22;11624;53.250;7.456;2024-02-26T10:20:35;12.77;51.06
22917;DHT22;11624;53.250;7.456;2024-02-26T10:23:04;12.72;51.22
22917;DHT22;11624;53.250;7.456;2024-02-26T10:25:33;12.80;50.64
22917;DHT22;11624;53.250;7.456;2024-02-26T10:28:02;12.80;50.85
22917;DHT22;11624;53.250;7.456;2024-02-26T10:30:30;12.81;50.73
22917;DHT22;11624;53.250;7.456;2024-02-26T10:32:59;12.91;50.28
22917;DHT22;11624;53.250;7.456;2024-02-26T10:35:30;12.91;49.98
22917;DHT22;11624;53.250;7.456;2024-02-26T10:38:01;12.94;49.97
22917;DHT22;11624;53.250;7.456;2024-02-26T10:40:29;12.91;49.62
22917;DHT22;11624;53.250;7.456;2024-02-26T10:42:58;12.94;49.38
22917;DHT22;11624;53.250;7.456;2024-02-26T10:45:26;12.96;49.52
22917;DHT22;11624;53.250;7.456;2024-02-26T10:47:55;13.02;49.83
22917;DHT22;11624;53.250;7.456;2024-02-26T10:50:24;13.15;48.82
22917;DHT22;11624;53.250;7.456;2024-02-26T10:52:55;13.18;49.02
22917;DHT22;11624;53.250;7.456;2024-02-26T10:55:24;13.24;49.35
22917;DHT22;11624;53.250;7.456;2024-02-26T10:57:54;13.34;49.77
22917;DHT22;11624;53.250;7.456;2024-02-26T11:00:23;13.53;49.09
22917;DHT22;11624;53.250;7.456;2024-02-26T11:02:52;13.53;48.76
22917;DHT22;11624;53.250;7.456;2024-02-26T11:05:22;13.56;47.62
22917;DHT22;11624;53.250;7.456;2024-02-26T11:07:53;13.54;48.14
22917;DHT22;11624;53.250;7.456;2024-02-26T11:10:22;13.41;48.12
22917;DHT22;11624;53.250;7.456;2024-02-26T11:12:54;13.48;48.06
22917;DHT22;11624;53.250;7.456;2024-02-26T11:15:23;13.56;47.96
22917;DHT22;11624;53.250;7.456;2024-02-26T11:17:52;13.61;47.16
22917;DHT22;11624;53.250;7.456;2024-02-26T11:20:22;13.58;47.54
22917;DHT22;11624;53.250;7.456;2024-02-26T11:22:51;13.54;47.25
22917;DHT22;11624;53.250;7.456;2024-02-26T11:25:21;13.50;47.60
22917;DHT22;11624;53.250;7.456;2024-02-26T11:27:54;13.47;47.76
22917;DHT22;11624;53.250;7.456;2024-02-26T11:30:25;13.53;47.41
22917;DHT22;11624;53.250;7.456;2024-02-26T11:32:54;13.49;47.79
22917;DHT22;11624;53.250;7.456;2024-02-26T11:35:23;13.60;47.45
22917;DHT22;11624;53.250;7.456;2024-02-26T11:37:53;13.58;47.47
22917;DHT22;11624;53.250;7.456;2024-02-26T11:40:25;13.55;47.34
22917;DHT22;11624;53.250;7.456;2024-02-26T11:42:54;13.46;47.60
22917;DHT22;11624;53.250;7.456;2024-02-26T11:45:48;13.45;47.63
22917;DHT22;11624;53.250;7.456;2024-02-26T11:48:23;13.41;47.69
22917;DHT22;11624;53.250;7.456;2024-02-26T11:50:53;13.47;48.27
22917;DHT22;11624;53.250;7.456;2024-02-26T11:53:23;13.60;48.15
22917;DHT22;11624;53.250;7.456;2024-02-26T11:56:23;13.65;47.55
22917;DHT22;11624;53.250;7.456;2024-02-26T11:59:01;13.76;47.76
22917;DHT22;11624;53.250;7.456;2024-02-26T12:01:40;13.81;47.28
22917;DHT22;11624;53.250;7.456;2024-02-26T12:04:13;13.90;47.51
22917;DHT22;11624;53.250;7.456;2024-02-26T12:06:44;13.91;47.25
22917;DHT22;11624;53.250;7.456;2024-02-26T12:09:13;13.75;47.40
22917;DHT22;11624;53.250;7.456;2024-02-26T12:11:43;13.69;47.60
22917;DHT22;11624;53.250;7.456;2024-02-26T12:14:11;13.55;47.63
22917;DHT22;11624;53.250;7.456;2024-02-26T12:16:40;13.49;48.01
22917;DHT22;11624;53.250;7.456;2024-02-26T12:19:09;13.50;48.23
22917;DHT22;11624;53.250;7.456;2024-02-26T12:21:38;13.47;48.55
22917;DHT22;11624;53.250;7.456;2024-02-26T12:24:09;13.54;48.41
22917;DHT22;11624;53.250;7.456;2024-02-26T12:26:38;13.62;48.02
22917;DHT22;11624;53.250;7.456;2024-02-26T12:29:09;13.78;48.10
22917;DHT22;11624;53.250;7.456;2024-02-26T12:31:39;13.88;47.54
22917;DHT22;11624;53.250;7.456;2024-02-26T12:34:08;13.96;47.13
22917;DHT22;11624;53.250;7.456;2024-02-26T12:36:38;13.99;47.00
22917;DHT22;11624;53.250;7.456;2024-02-26T12:39:07;14.04;46.32
22917;DHT22;11624;53.250;7.456;2024-02-26T12:41:38;14.05;46.67
22917;DHT22;11624;53.250;7.456;2024-02-26T12:44:09;14.11;46.68
22917;DHT22;11624;53.250;7.456;2024-02-26T12:46:37;14.07;46.03
22917;DHT22;11624;53.250;7.456;2024-02-26T12:49:06;13.91;46.76
22917;DHT22;11624;53.250;7.456;2024-02-26T12:51:35;13.82;47.15
22917;DHT22;11624;53.250;7.456;2024-02-26T12:54:03;13.79;47.26
22917;DHT22;11624;53.250;7.456;2024-02-26T12:56:32;13.68;47.36
22917;DHT22;11624;53.250;7.456;2024-02-26T12:59:01;13.60;47.84
22917;DHT22;11624;53.250;7.456;2024-02-26T13:01:32;13.51;47.91
22917;DHT22;11624;53.250;7.456;2024-02-26T13:04:01;13.51;48.19
22917;DHT22;11624;53.250;7.456;2024-02-26T13:06:34;13.52;48.21
22917;DHT22;11624;53.250;7.456;2024-02-26T13:09:03;13.60;47.63
22917;DHT22;11624;53.250;7.456;2024-02-26T13:11:32;13.60;47.74
22917;DHT22;11624;53.250;7.456;2024-02-26T13:14:00;13.61;48.02
22917;DHT22;11624;53.250;7.456;2024-02-26T13:16:34;13.65;47.91
22917;DHT22;11624;53.250;7.456;2024-02-26T13:19:08;13.63;46.93
22917;DHT22;11624;53.250;7.456;2024-02-26T13:21:37;13.63;47.46
22917;DHT22;11624;53.250;7.456;2024-02-26T13:24:06;13.69;47.57
22917;DHT22;11624;53.250;7.456;2024-02-26T13:26:35;13.69;46.97
22917;DHT22;11624;53.250;7.456;2024-02-26T13:29:03;13.59;47.22
22917;DHT22;11624;53.250;7.456;2024-02-26T13:31:40;13.48;47.05
22917;DHT22;11624;53.250;7.456;2024-02-26T13:34:11;13.50;47.26
22917;DHT22;11624;53.250;7.456;2024-02-26T13:36:40;13.27;47.92
22917;DHT22;11624;53.250;7.456;2024-02-26T13:39:08;13.21;48.36
22917;DHT22;11624;53.250;7.456;2024-02-26T13:41:40;13.15;48.53
22917;DHT22;11624;53.250;7.456;2024-02-26T13:44:10;13.16;48.91
22917;DHT22;11624;53.250;7.456;2024-02-26T13:46:40;13.25;48.63
22917;DHT22;11624;53.250;7.456;2024-02-26T13:49:09;13.25;48.45
22917;DHT22;11624;53.250;7.456;2024-02-26T13:51:38;13.37;48.08
22917;DHT22;11624;53.250;7.456;2024-02-26T13:54:07;13.39;48.18
22917;DHT22;11624;53.250;7.456;2024-02-26T13:56:36;13.21;48.53
22917;DHT22;11624;53.250;7.456;2024-02-26T13:59:05;13.22;48.43
22917;DHT22;11624;53.250;7.456;2024-02-26T14:01:33;13.21;48.58
22917;DHT22;11624;53.250;7.456;2024-02-26T14:04:04;13.15;48.57
22917;DHT22;11624;53.250;7.456;2024-02-26T14:06:33;13.07;48.69
22917;DHT22;11624;53.250;7.456;2024-02-26T14:09:01;12.95;49.10
22917;DHT22;11624;53.250;7.456;2024-02-26T14:11:31;12.76;49.65
22917;DHT22;11624;53.250;7.456;2024-02-26T14:13:59;12.66;50.07
22917;DHT22;11624;53.250;7.456;2024-02-26T14:16:28;12.63;50.25
22917;DHT22;11624;53.250;7.456;2024-02-26T14:18:58;12.62;50.30
22917;DHT22;11624;53.250;7.456;2024-02-26T14:21:28;12.61;50.43
22917;DHT22;11624;53.250;7.456;2024-02-26T14:23:57;12.64;50.42
22917;DHT22;11624;53.250;7.456;2024-02-26T14:26:26;12.65;50.53
22917;DHT22;11624;53.250;7.456;2024-02-26T14:28:55;12.74;50.37
22917;DHT22;11624;53.250;7.456;2024-02-26T14:31:24;12.67;50.47
22917;DHT22;11624;53.250;7.456;2024-02-26T14:33:52;12.70;50.43
22917;DHT22;11624;53.250;7.456;2024-02-26T14:36:21;12.66;50.49
22917;DHT22;11624;53.250;7.456;2024-02-26T14:38:51;12.64;50.69
22917;DHT22;11624;53.250;7.456;2024-02-26T14:41:20;12.74;50.64
22917;DHT22;11624;53.250;7.456;2024-02-26T14:43:49;12.82;50.38
22917;DHT22;11624;53.250;7.456;2024-02-26T14:46:17;12.90;49.97
22917;DHT22;11624;53.250;7.456;2024-02-26T14:48:45;12.86;49.69
22917;DHT22;11624;53.250;7.456;2024-02-26T14:51:14;12.75;49.79
22917;DHT22;11624;53.250;7.456;2024-02-26T14:53:42;12.72;49.80
22917;DHT22;11624;53.250;7.456;2024-02-26T14:56:12;12.77;49.54
22917;DHT22;11624;53.250;7.456;2024-02-26T14:58:41;12.75;49.79
22917;DHT22;11624;53.250;7.456;2024-02-26T15:01:09;12.67;49.85
22917;DHT22;11624;53.250;7.456;2024-02-26T15:03:38;12.69;50.08
22917;DHT22;11624;53.250;7.456;2024-02-26T15:06:07;12.66;50.21
22917;DHT22;11624;53.250;7.456;2024-02-26T15:08:35;12.69;50.01
22917;DHT22;11624;53.250;7.456;2024-02-26T15:11:04;12.74;49.76
22917;DHT22;11624;53.250;7.456;2024-02-26T15:13:34;12.64;49.95
22917;DHT22;11624;53.250;7.456;2024-02-26T15:16:03;12.70;50.13
22917;DHT22;11624;53.250;7.456;2024-02-26T15:18:31;12.67;50.16
22917;DHT22;11624;53.250;7.456;2024-02-26T15:21:00;12.66;50.03
22917;DHT22;11624;53.250;7.456;2024-02-26T15:23:30;12.69;50.02
22917;DHT22;11624;53.250;7.456;2024-02-26T15:25:58;12.66;49.88
22917;DHT22;11624;53.250;7.456;2024-02-26T15:28:28;12.60;50.05
22917;DHT22;11624;53.250;7.456;2024-02-26T15:30:57;12.57;50.23
22917;DHT22;11624;53.250;7.456;2024-02-26T15:33:26;12.55;50.39
22917;DHT22;11624;53.250;7.456;2024-02-26T15:35:55;12.51;50.45
22917;DHT22;11624;53.250;7.456;2024-02-26T15:38:23;12.49;50.55
22917;DHT22;11624;53.250;7.456;2024-02-26T15:40:51;12.51;50.64
22917;DHT22;11624;53.250;7.456;2024-02-26T15:43:20;12.53;50.63
22917;DHT22;11624;53.250;7.456;2024-02-26T15:45:48;12.52;50.82
22917;DHT22;11624;53.250;7.456;2024-02-26T15:48:18;12.48;50.80